Terminal Aerodrome Forecast
Issued by NWS

Home | Current Version | Previous Version | Text Only | Print | Product List | Glossary On
Versions: 1 2 3 4 5 6 7 8 9 10 11 12 13 14 15 16 17 18 19 20 21 22 23 24 25 26 27 28 29 30 31 32 33
799
FTUS43 KDMX 281141 CCA
TAFFOD
TAF COR
KFOD 281141Z 2812/2912 VRB03KT P6SM FEW002 OVC035
     FM281300 17006KT P6SM SCT012 OVC050
     FM281900 20010KT P6SM VCSH BKN090
     FM282200 21011KT P6SM VCTS SCT040CB BKN120
     FM290000 24013KT 5SM -TSRA BKN025CB OVC060
     FM290300 25007KT P6SM VCTS SCT015CB OVC020
     FM290600 26014KT P6SM BKN015=

USA.gov is the U.S. government's official web portal to all federal, state and local government web resources and services.